Creek Data

    Home     View Charts     View Raw Data     Messages

ID Distance Battery Voltage Battery Current Internal Temp Internal Humidity External Temp Solar Input rssi snr Time Stamp Record
65445 15.0 3.84 -5 49 51 50 0 -76 8 02/05/2026 08:15 PM 48235
65444 15.0 3.90 -5 50 51 51 0.1 -76 8 02/05/2026 08:00 PM 48234
65443 15.0 3.84 -5 50 52 52 0 -76 8 02/05/2026 07:45 PM 48233
65442 15.0 3.84 -5 50 53 50 0.1 -76 7 02/05/2026 07:30 PM 48232
65441 15.0 3.84 -5 50 53 51 0 -76 8 02/05/2026 07:15 PM 48231
65440 15.0 3.90 -5 51 54 52 0 -76 8 02/05/2026 07:00 PM 48230
65439 15.0 3.90 -5 52 54 53 0.1 -76 8 02/05/2026 06:45 PM 48229
65438 15.0 3.84 -5 54 54 53 0 -76 8 02/05/2026 06:30 PM 48228
65437 15.0 3.84 -5 55 55 55 0.1 -76 8 02/05/2026 06:15 PM 48227
65436 15.0 3.84 -5 56 55 58 0 -76 8 02/05/2026 06:00 PM 48226
65435 15.0 3.85 -5 58 56 57 0.7 -76 8 02/05/2026 05:45 PM 48225
65434 15.0 3.84 -10 61 56 58 2.5 -75 8 02/05/2026 05:30 PM 48224
65433 15.0 3.93 7 64 55 62 4.5 -75 7 02/05/2026 05:15 PM 48223
65432 15.0 3.91 0 67 55 65 4.5 -75 7 02/05/2026 05:00 PM 48222
65431 15.0 3.92 29 69 54 66 4.6 -75 8 02/05/2026 04:45 PM 48221
65430 15.0 4.02 56 75 52 68 4.6 -75 8 02/05/2026 04:15 PM 48219
65429 15.0 3.90 0 78 50 68 5.1 -75 8 02/05/2026 04:00 PM 48218
65428 15.1 4.01 9 81 47 69 5.1 -75 8 02/05/2026 03:45 PM 48217
65427 15.1 3.90 9 79 48 69 5.1 -75 8 02/05/2026 03:30 PM 48216
65426 15.2 3.89 9 76 50 68 5.1 -74 8 02/05/2026 03:15 PM 48215
65425 15.2 3.89 0 76 50 67 5.1 -74 8 02/05/2026 03:00 PM 48214
65424 15.1 4.09 9 79 46 68 5.1 -74 8 02/05/2026 02:45 PM 48213
65423 15.2 3.89 0 79 46 67 5.1 -74 7 02/05/2026 02:30 PM 48212
65422 15.2 3.89 0 78 44 67 5.1 -74 8 02/05/2026 02:15 PM 48211
65421 15.2 3.92 0 77 44 66 5.1 -74 8 02/05/2026 02:00 PM 48210